createdAt,value
2023-04-27T00:00:29.347Z,71.14
2023-04-27T00:03:16.391Z,71.04
2023-04-27T00:06:16.407Z,71.16
2023-04-27T00:08:54.684Z,71.26
2023-04-27T00:11:54.666Z,71.21
2023-04-27T00:14:38.200Z,71.25
2023-04-27T00:17:20.965Z,71.32
2023-04-27T00:20:00.697Z,71.36
2023-04-27T00:22:39.523Z,71.35
2023-04-27T00:25:19.463Z,71.30
2023-04-27T00:27:56.767Z,71.35
2023-04-27T00:30:45.420Z,71.22
2023-04-27T00:33:25.648Z,71.24
2023-04-27T00:36:12.179Z,71.21
2023-04-27T00:38:57.242Z,71.17
2023-04-27T00:41:39.569Z,71.15
2023-04-27T00:44:40.909Z,71.13
2023-04-27T00:47:19.854Z,71.06
2023-04-27T00:50:03.955Z,70.92
2023-04-27T00:52:42.202Z,70.94
2023-04-27T00:55:21.955Z,70.94
2023-04-27T00:58:08.014Z,70.99
2023-04-27T01:00:42.225Z,71.05
2023-04-27T01:03:58.792Z,71.03
2023-04-27T01:06:33.676Z,71.02
2023-04-27T01:09:19.695Z,70.99
2023-04-27T01:11:59.666Z,70.92
2023-04-27T01:14:38.739Z,70.94
2023-04-27T01:17:44.428Z,70.98
2023-04-27T01:20:16.269Z,71.00
2023-04-27T01:23:14.261Z,71.07
2023-04-27T01:25:48.757Z,71.01
2023-04-27T01:28:31.992Z,71.10
2023-04-27T01:31:16.138Z,71.08
2023-04-27T01:33:57.516Z,71.17
2023-04-27T01:36:32.653Z,71.17
2023-04-27T01:39:24.496Z,71.30
2023-04-27T01:42:02.287Z,71.25
2023-04-27T01:44:41.311Z,71.23
2023-04-27T01:47:31.335Z,71.16
2023-04-27T01:50:26.503Z,71.24
2023-04-27T01:53:09.214Z,71.25
2023-04-27T01:56:01.146Z,71.25
2023-04-27T01:58:45.806Z,71.30
2023-04-27T02:01:56.831Z,71.34
2023-04-27T02:04:48.016Z,71.35
2023-04-27T02:07:26.615Z,71.35
2023-04-27T02:10:14.467Z,71.38
2023-04-27T02:12:48.584Z,71.43
2023-04-27T02:15:43.532Z,71.36
2023-04-27T02:18:45.752Z,71.22
2023-04-27T02:21:29.582Z,71.17
2023-04-27T02:24:31.146Z,71.21
2023-04-27T02:27:14.788Z,71.20
2023-04-27T02:29:50.153Z,71.19
2023-04-27T02:32:26.257Z,71.26
2023-04-27T02:35:17.165Z,71.15
2023-04-27T02:38:03.277Z,71.23
2023-04-27T02:40:34.638Z,71.17
2023-04-27T02:43:30.972Z,71.22
2023-04-27T02:46:28.986Z,71.31
2023-04-27T02:49:25.388Z,71.26
2023-04-27T02:52:30.213Z,71.25
2023-04-27T02:55:01.557Z,71.32
2023-04-27T02:57:50.263Z,71.44
2023-04-27T03:00:33.237Z,71.53
2023-04-27T03:03:17.627Z,71.64
2023-04-27T03:06:24.729Z,71.80
2023-04-27T03:09:07.818Z,71.85
2023-04-27T03:11:56.031Z,71.91
2023-04-27T03:14:56.672Z,71.95
2023-04-27T03:17:36.276Z,71.82
2023-04-27T03:20:27.660Z,71.82
2023-04-27T03:23:05.623Z,71.86
2023-04-27T03:25:46.401Z,71.84
2023-04-27T03:28:40.191Z,71.87
2023-04-27T03:31:18.925Z,71.91
2023-04-27T03:33:50.867Z,71.86
2023-04-27T03:36:24.484Z,71.79
2023-04-27T03:39:03.833Z,71.78
2023-04-27T03:41:37.909Z,71.90
2023-04-27T03:44:43.571Z,71.93
2023-04-27T03:47:21.214Z,72.00
2023-04-27T03:49:52.934Z,72.08
2023-04-27T03:52:27.651Z,72.06
2023-04-27T03:55:11.599Z,72.13
2023-04-27T03:57:48.511Z,72.19
2023-04-27T04:00:20.549Z,72.21
2023-04-27T04:03:01.672Z,72.31
2023-04-27T04:05:36.650Z,72.35
2023-04-27T04:08:33.177Z,72.27
2023-04-27T04:11:08.251Z,72.35
2023-04-27T04:13:55.805Z,72.37
2023-04-27T04:16:41.543Z,72.35
2023-04-27T04:19:26.709Z,72.22
2023-04-27T04:22:04.989Z,72.38
2023-04-27T04:25:08.030Z,72.34
2023-04-27T04:27:46.540Z,72.33
2023-04-27T04:30:34.378Z,72.38
2023-04-27T04:33:19.352Z,72.34
2023-04-27T04:35:54.883Z,72.37
2023-04-27T04:38:28.589Z,72.34
2023-04-27T04:41:16.828Z,72.24
2023-04-27T04:44:07.441Z,72.24
2023-04-27T04:46:48.848Z,72.21
2023-04-27T04:49:28.774Z,72.18
2023-04-27T04:52:17.520Z,72.15
2023-04-27T04:55:04.187Z,72.09
2023-04-27T04:57:50.725Z,72.04
2023-04-27T05:00:45.531Z,72.01
2023-04-27T05:03:23.519Z,71.98
2023-04-27T05:06:09.284Z,72.02
2023-04-27T05:08:40.971Z,72.02
2023-04-27T05:11:12.422Z,71.99
2023-04-27T05:13:57.505Z,71.99
2023-04-27T05:16:37.559Z,71.94
2023-04-27T05:19:21.794Z,71.91
2023-04-27T05:22:07.587Z,71.80
2023-04-27T05:24:42.114Z,71.73
2023-04-27T05:27:17.797Z,71.58
2023-04-27T05:30:00.772Z,71.58
2023-04-27T05:32:40.035Z,71.23
2023-04-27T05:35:18.112Z,71.11
2023-04-27T05:37:49.491Z,71.13
2023-04-27T05:40:22.056Z,71.20
2023-04-27T05:42:57.491Z,70.93
2023-04-27T05:45:34.478Z,70.87
2023-04-27T05:48:08.504Z,70.83
2023-04-27T05:50:47.833Z,70.70
2023-04-27T05:53:24.283Z,70.67
2023-04-27T05:56:12.347Z,70.37
2023-04-27T05:58:50.336Z,70.14
2023-04-27T06:01:24.625Z,70.05
2023-04-27T06:04:04.898Z,69.54
2023-04-27T06:06:36.472Z,69.30
2023-04-27T06:09:22.101Z,69.08
2023-04-27T06:11:56.114Z,68.85
2023-04-27T06:14:29.094Z,68.44
2023-04-27T06:16:57.935Z,67.89
2023-04-27T06:19:27.149Z,67.41
2023-04-27T06:21:57.253Z,66.39
2023-04-27T06:24:37.788Z,64.96
2023-04-27T06:27:09.890Z,64.08
2023-04-27T06:29:42.363Z,63.41
2023-04-27T06:32:17.217Z,61.86
2023-04-27T06:34:55.245Z,62.00
2023-04-27T06:37:27.373Z,62.00
2023-04-27T06:39:59.330Z,60.65
2023-04-27T06:42:30.791Z,60.81
2023-04-27T06:45:07.553Z,60.87
2023-04-27T06:47:39.157Z,60.81
2023-04-27T06:50:08.521Z,60.01
2023-04-27T06:52:40.398Z,59.33
2023-04-27T06:55:09.460Z,59.30
2023-04-27T06:57:41.127Z,59.17
2023-04-27T07:00:13.901Z,57.55
2023-04-27T07:02:42.848Z,57.00
2023-04-27T07:05:14.552Z,56.60
2023-04-27T07:07:46.405Z,57.17
2023-04-27T07:10:17.463Z,57.52
2023-04-27T07:12:46.950Z,56.94
2023-04-27T07:15:21.601Z,56.76
2023-04-27T07:17:55.406Z,57.53
2023-04-27T07:20:24.576Z,57.55
2023-04-27T07:23:02.172Z,57.46
2023-04-27T07:25:34.171Z,57.10
2023-04-27T07:28:05.385Z,57.02
2023-04-27T07:30:37.399Z,57.02
2023-04-27T07:33:07.525Z,57.67
2023-04-27T07:35:37.431Z,58.05
2023-04-27T07:38:07.195Z,57.89
2023-04-27T07:40:36.576Z,57.59
2023-04-27T07:43:09.573Z,56.58
2023-04-27T07:45:40.680Z,56.35
2023-04-27T07:48:17.449Z,55.67
2023-04-27T07:50:52.335Z,55.48
2023-04-27T07:53:21.739Z,54.49
2023-04-27T07:55:52.786Z,54.16
2023-04-27T07:58:24.538Z,54.32
2023-04-27T08:00:55.996Z,54.59
2023-04-27T08:03:25.263Z,53.70
2023-04-27T08:05:59.784Z,52.83
2023-04-27T08:08:29.931Z,52.69
2023-04-27T08:10:58.819Z,51.75
2023-04-27T08:13:37.035Z,51.17
2023-04-27T08:16:09.734Z,51.51
2023-04-27T08:18:38.606Z,51.75
2023-04-27T08:21:07.686Z,51.80
2023-04-27T08:23:38.463Z,51.59
2023-04-27T08:26:07.843Z,51.43
2023-04-27T08:28:36.535Z,50.38
2023-04-27T08:31:05.358Z,49.94
2023-04-27T08:33:36.713Z,49.18
2023-04-27T08:36:09.030Z,49.33
2023-04-27T08:38:37.620Z,48.65
2023-04-27T08:41:21.851Z,49.27
2023-04-27T08:44:06.870Z,50.10
2023-04-27T08:46:42.738Z,48.24
2023-04-27T08:49:12.350Z,47.40
2023-04-27T08:51:48.538Z,47.16
2023-04-27T08:54:25.941Z,47.72
2023-04-27T08:57:10.035Z,48.31
2023-04-27T08:59:45.126Z,47.08
2023-04-27T09:02:21.183Z,47.01
2023-04-27T09:04:52.368Z,47.11
2023-04-27T09:07:22.258Z,47.85
2023-04-27T09:10:05.111Z,48.61
2023-04-27T09:12:54.341Z,49.60
2023-04-27T09:15:27.024Z,49.90
2023-04-27T09:17:57.925Z,48.29
2023-04-27T09:20:33.527Z,46.26
2023-04-27T09:23:10.879Z,46.78
2023-04-27T09:25:49.619Z,47.45
2023-04-27T09:28:21.804Z,47.56
2023-04-27T09:30:58.043Z,48.13
2023-04-27T09:33:39.378Z,48.89
2023-04-27T09:36:17.424Z,48.77
2023-04-27T09:38:51.957Z,48.62
2023-04-27T09:41:22.016Z,49.34
2023-04-27T09:44:04.689Z,48.84
2023-04-27T09:46:34.094Z,49.08
2023-04-27T09:49:06.263Z,49.51
2023-04-27T09:51:35.237Z,48.77
2023-04-27T09:54:09.511Z,48.33
2023-04-27T09:56:46.653Z,48.97
2023-04-27T09:59:23.014Z,48.35
2023-04-27T10:02:20.959Z,48.18
2023-04-27T10:04:59.048Z,48.29
2023-04-27T10:07:28.565Z,48.51
2023-04-27T10:10:02.634Z,48.47
2023-04-27T10:12:38.882Z,47.05
2023-04-27T10:15:17.905Z,47.22
2023-04-27T10:17:59.374Z,47.40
2023-04-27T10:20:34.738Z,47.19
2023-04-27T10:23:04.736Z,46.97
2023-04-27T10:25:41.871Z,46.46
2023-04-27T10:28:18.160Z,46.32
2023-04-27T10:30:49.404Z,45.94
2023-04-27T10:33:22.223Z,45.45
2023-04-27T10:35:56.739Z,45.20
2023-04-27T10:38:33.216Z,45.22
2023-04-27T10:41:14.507Z,45.20
2023-04-27T10:43:55.258Z,44.23
2023-04-27T10:46:36.426Z,43.83
2023-04-27T10:49:16.176Z,44.91
2023-04-27T10:51:45.516Z,45.77
2023-04-27T10:54:19.914Z,46.12
2023-04-27T10:56:52.484Z,46.34
2023-04-27T10:59:24.257Z,46.84
2023-04-27T11:01:52.872Z,45.99
2023-04-27T11:04:21.639Z,46.04
2023-04-27T11:06:54.827Z,45.88
2023-04-27T11:09:31.383Z,44.10
2023-04-27T11:12:02.472Z,42.89
2023-04-27T11:14:46.680Z,42.95
2023-04-27T11:17:29.315Z,43.06
2023-04-27T11:20:01.510Z,43.39
2023-04-27T11:22:32.921Z,43.55
2023-04-27T11:25:04.781Z,43.26
2023-04-27T11:27:48.510Z,43.04
2023-04-27T11:30:24.354Z,42.44
2023-04-27T11:33:13.088Z,43.71
2023-04-27T11:35:45.175Z,44.17
2023-04-27T11:38:17.860Z,44.32
2023-04-27T11:41:08.543Z,45.69
2023-04-27T11:43:51.511Z,47.06
2023-04-27T11:46:23.467Z,47.69
2023-04-27T11:48:55.096Z,47.22
2023-04-27T11:51:36.492Z,47.05
2023-04-27T11:54:07.227Z,47.59
2023-04-27T11:56:38.158Z,47.50
2023-04-27T11:59:20.266Z,47.63
2023-04-27T12:01:49.204Z,46.30
2023-04-27T12:04:18.820Z,45.96
2023-04-27T12:06:50.803Z,45.27
2023-04-27T12:09:19.715Z,45.55
2023-04-27T12:11:48.797Z,45.18
2023-04-27T12:14:20.684Z,45.04
2023-04-27T12:16:55.232Z,44.81
2023-04-27T12:19:30.736Z,44.70
2023-04-27T12:22:05.997Z,44.56
2023-04-27T12:24:35.072Z,44.46
2023-04-27T12:27:04.583Z,43.40
2023-04-27T12:29:33.373Z,42.27
2023-04-27T12:32:05.255Z,41.16
2023-04-27T12:34:34.824Z,41.63
2023-04-27T12:37:07.107Z,40.75
2023-04-27T12:39:35.694Z,40.85
2023-04-27T12:42:04.609Z,41.19
2023-04-27T12:44:33.885Z,40.11
2023-04-27T12:47:05.759Z,39.59
2023-04-27T12:49:34.608Z,39.73
2023-04-27T12:52:06.690Z,40.06
2023-04-27T12:54:36.811Z,39.70
2023-04-27T12:57:08.895Z,39.89
2023-04-27T12:59:39.811Z,39.18
2023-04-27T13:02:10.453Z,38.74
2023-04-27T13:04:39.599Z,39.12
2023-04-27T13:07:08.636Z,40.06
2023-04-27T13:09:37.485Z,40.77
2023-04-27T13:12:06.419Z,41.27
2023-04-27T13:14:35.128Z,40.50
2023-04-27T13:17:04.616Z,41.88
2023-04-27T13:19:38.820Z,44.16
2023-04-27T13:22:10.956Z,44.59
2023-04-27T13:24:39.873Z,45.16
2023-04-27T13:27:08.982Z,45.73
2023-04-27T13:29:40.433Z,46.95
2023-04-27T13:32:11.782Z,47.51
2023-04-27T13:34:40.369Z,47.54
2023-04-27T13:37:09.050Z,47.08
2023-04-27T13:39:40.053Z,47.15
2023-04-27T13:42:08.876Z,47.22
2023-04-27T13:44:42.894Z,47.00
2023-04-27T13:47:18.238Z,46.91
2023-04-27T13:49:46.804Z,46.49
2023-04-27T13:52:16.635Z,46.23
2023-04-27T13:54:45.528Z,46.62
2023-04-27T13:57:16.756Z,46.86
2023-04-27T13:59:45.449Z,46.63
2023-04-27T14:02:19.289Z,46.07
2023-04-27T14:07:36.002Z,45.95
2023-04-27T14:10:08.031Z,46.07
2023-04-27T14:12:37.198Z,45.81
2023-04-27T14:15:06.547Z,45.68
2023-04-27T14:17:35.230Z,44.38
2023-04-27T14:20:07.051Z,43.33
2023-04-27T14:22:36.258Z,43.43
2023-04-27T14:25:05.585Z,43.37
2023-04-27T14:27:34.040Z,43.25
2023-04-27T14:30:03.136Z,43.04
2023-04-27T14:32:31.736Z,43.33
2023-04-27T14:35:00.329Z,43.92
2023-04-27T14:37:29.100Z,44.74
2023-04-27T14:39:57.881Z,45.01
2023-04-27T14:42:26.786Z,45.69
2023-04-27T14:44:55.989Z,45.94
2023-04-27T14:47:25.269Z,45.99
2023-04-27T14:49:53.845Z,45.68
2023-04-27T14:52:23.155Z,45.87
2023-04-27T14:54:53.887Z,46.02
2023-04-27T14:57:24.208Z,45.98
2023-04-27T14:59:53.597Z,46.04
2023-04-27T15:02:22.878Z,46.02
2023-04-27T15:04:52.561Z,45.89
2023-04-27T15:07:21.710Z,45.89
2023-04-27T15:09:51.630Z,45.05
2023-04-27T15:12:20.314Z,44.65
2023-04-27T15:14:52.525Z,44.79
2023-04-27T15:17:21.534Z,44.72
2023-04-27T15:19:51.904Z,44.46
2023-04-27T15:22:21.112Z,44.72
2023-04-27T15:24:49.795Z,44.91
2023-04-27T15:27:21.244Z,45.07
2023-04-27T15:29:53.307Z,45.20
2023-04-27T15:32:24.830Z,45.82
2023-04-27T15:34:53.440Z,45.30
2023-04-27T15:37:22.235Z,44.84
2023-04-27T15:39:51.115Z,44.71
2023-04-27T15:42:20.226Z,44.94
2023-04-27T15:44:49.519Z,44.95
2023-04-27T15:47:18.730Z,44.95
2023-04-27T15:49:57.310Z,44.29
2023-04-27T15:52:27.395Z,44.94
2023-04-27T15:54:57.723Z,45.94
2023-04-27T15:57:26.882Z,46.40
2023-04-27T15:59:55.850Z,46.83
2023-04-27T16:02:25.090Z,47.01
2023-04-27T16:04:57.128Z,47.07
2023-04-27T16:07:28.787Z,47.23
2023-04-27T16:09:57.830Z,47.34
2023-04-27T16:12:27.086Z,47.28
2023-04-27T16:14:59.472Z,47.37
2023-04-27T16:17:31.590Z,47.45
2023-04-27T16:20:00.914Z,47.54
2023-04-27T16:22:29.507Z,47.50
2023-04-27T16:24:58.640Z,47.76
2023-04-27T16:27:27.756Z,47.94
2023-04-27T16:29:56.996Z,48.16
2023-04-27T16:32:27.139Z,47.87
2023-04-27T16:34:56.136Z,48.03
2023-04-27T16:37:25.527Z,47.81
2023-04-27T16:39:54.512Z,47.93
2023-04-27T16:42:23.084Z,48.04
2023-04-27T16:44:51.768Z,47.97
2023-04-27T16:47:20.832Z,47.85
2023-04-27T16:49:49.964Z,47.92
2023-04-27T16:52:20.301Z,48.33
2023-04-27T16:54:50.513Z,48.13
2023-04-27T16:57:20.874Z,48.16
2023-04-27T16:59:51.022Z,47.68
2023-04-27T17:02:25.045Z,47.57
2023-04-27T17:04:55.245Z,47.61
2023-04-27T17:07:24.603Z,47.09
2023-04-27T17:09:53.493Z,47.05
2023-04-27T17:12:22.420Z,47.23
2023-04-27T17:14:51.661Z,47.46
2023-04-27T17:17:20.991Z,47.58
2023-04-27T17:19:50.267Z,47.40
2023-04-27T17:22:19.443Z,47.51
2023-04-27T17:24:52.109Z,47.47
2023-04-27T17:27:23.287Z,47.32
2023-04-27T17:29:57.854Z,47.20
2023-04-27T17:32:27.179Z,47.21
2023-04-27T17:34:57.588Z,47.19
2023-04-27T17:37:27.379Z,46.82
2023-04-27T17:39:56.588Z,46.95
2023-04-27T17:42:25.350Z,46.68
2023-04-27T17:44:54.051Z,46.41
2023-04-27T17:47:25.641Z,46.22
2023-04-27T17:49:55.102Z,46.26
2023-04-27T17:52:24.352Z,46.31
2023-04-27T17:54:56.459Z,46.26
2023-04-27T17:57:28.248Z,46.34
2023-04-27T18:00:07.693Z,46.42
2023-04-27T18:02:38.833Z,46.48
2023-04-27T18:05:11.350Z,46.65
2023-04-27T18:07:40.543Z,46.75
2023-04-27T18:10:13.149Z,46.92
2023-04-27T18:12:47.786Z,47.05
2023-04-27T18:15:23.518Z,47.26
2023-04-27T18:17:55.592Z,47.43
2023-04-27T18:20:25.688Z,48.48
2023-04-27T18:22:59.195Z,49.56
2023-04-27T18:25:29.082Z,50.17
2023-04-27T18:27:59.483Z,50.78
2023-04-27T18:30:29.356Z,50.78
2023-04-27T18:32:59.196Z,51.01
2023-04-27T18:35:29.098Z,51.21
2023-04-27T18:37:58.904Z,50.71
2023-04-27T18:40:33.071Z,51.13
2023-04-27T18:43:04.046Z,50.99
2023-04-27T18:45:39.027Z,51.21
2023-04-27T18:48:09.071Z,52.57
2023-04-27T18:50:41.976Z,53.17
2023-04-27T18:53:14.639Z,53.64
2023-04-27T18:55:44.162Z,53.66
2023-04-27T18:58:15.702Z,53.92
2023-04-27T19:00:45.487Z,54.03
2023-04-27T19:03:18.448Z,54.66
2023-04-27T19:05:47.716Z,54.64
2023-04-27T19:08:22.619Z,54.08
2023-04-27T19:10:52.470Z,53.76
2023-04-27T19:13:24.935Z,53.80
2023-04-27T19:16:00.781Z,54.07
2023-04-27T19:18:36.123Z,54.57
2023-04-27T19:21:10.054Z,54.75
2023-04-27T19:23:45.805Z,54.94
2023-04-27T19:26:29.689Z,55.08
2023-04-27T19:28:58.593Z,55.32
2023-04-27T19:31:27.883Z,55.59
2023-04-27T19:34:04.184Z,55.86
2023-04-27T19:36:38.994Z,56.43
2023-04-27T19:39:15.786Z,56.75
2023-04-27T19:41:49.831Z,57.16
2023-04-27T19:44:19.106Z,57.68
2023-04-27T19:46:52.236Z,57.90
2023-04-27T19:49:24.501Z,58.72
2023-04-27T19:51:53.786Z,58.82
2023-04-27T19:54:23.161Z,58.63
2023-04-27T19:56:56.267Z,59.04
2023-04-27T19:59:31.638Z,59.14
2023-04-27T20:02:02.946Z,59.09
2023-04-27T20:04:38.221Z,59.10
2023-04-27T20:07:09.022Z,59.37
2023-04-27T20:09:38.412Z,59.72
2023-04-27T20:12:09.212Z,59.99
2023-04-27T20:14:43.114Z,59.91
2023-04-27T20:17:18.713Z,60.07
2023-04-27T20:19:48.923Z,60.25
2023-04-27T20:22:24.495Z,60.41
2023-04-27T20:24:54.497Z,60.64
2023-04-27T20:27:27.395Z,60.82
2023-04-27T20:29:59.372Z,60.78
2023-04-27T20:32:42.798Z,60.81
2023-04-27T20:35:15.603Z,60.76
2023-04-27T20:37:45.495Z,60.89
2023-04-27T20:40:18.458Z,61.05
2023-04-27T20:42:49.829Z,61.16
2023-04-27T20:45:19.990Z,61.47
2023-04-27T20:47:49.398Z,61.74
2023-04-27T20:50:19.235Z,62.05
2023-04-27T20:52:50.485Z,62.62
2023-04-27T20:55:23.064Z,62.82
2023-04-27T20:57:55.440Z,62.75
2023-04-27T21:00:36.751Z,63.06
2023-04-27T21:03:08.311Z,63.19
2023-04-27T21:05:41.558Z,63.39
2023-04-27T21:08:25.100Z,63.46
2023-04-27T21:11:01.777Z,64.06
2023-04-27T21:13:31.073Z,64.24
2023-04-27T21:16:05.687Z,64.14
2023-04-27T21:18:40.341Z,64.59
2023-04-27T21:21:12.588Z,64.72
2023-04-27T21:23:41.818Z,65.18
2023-04-27T21:26:21.262Z,65.33
2023-04-27T21:28:53.389Z,65.42
2023-04-27T21:31:30.521Z,65.50
2023-04-27T21:34:04.285Z,65.85
2023-04-27T21:36:37.443Z,66.08
2023-04-27T21:39:14.458Z,66.05
2023-04-27T21:41:43.138Z,66.49
2023-04-27T21:44:12.135Z,66.54
2023-04-27T21:46:41.212Z,66.64
2023-04-27T21:49:16.592Z,66.86
2023-04-27T21:52:49.621Z,67.01
2023-04-27T21:55:56.774Z,66.91
2023-04-27T21:58:46.236Z,67.18
2023-04-27T22:01:43.211Z,67.14
2023-04-27T22:05:08.907Z,67.29
2023-04-27T22:08:00.773Z,67.38
2023-04-27T22:10:34.548Z,67.50
2023-04-27T22:13:15.084Z,67.72
2023-04-27T22:15:57.775Z,67.64
2023-04-27T22:18:54.030Z,67.95
2023-04-27T22:22:06.133Z,67.89
2023-04-27T22:25:58.648Z,67.86
2023-04-27T22:29:16.288Z,68.00
2023-04-27T22:32:28.963Z,68.25
2023-04-27T22:35:41.795Z,68.06
2023-04-27T22:39:04.232Z,68.38
2023-04-27T22:42:23.491Z,68.23
2023-04-27T22:45:38.973Z,68.53
2023-04-27T22:48:08.039Z,68.65
2023-04-27T22:50:41.977Z,69.00
2023-04-27T22:53:42.100Z,68.84
2023-04-27T22:56:26.655Z,68.92
2023-04-27T22:59:54.497Z,68.91
2023-04-27T23:03:38.098Z,68.75
2023-04-27T23:07:21.921Z,68.75
2023-04-27T23:10:19.308Z,68.90
2023-04-27T23:13:11.717Z,69.33
2023-04-27T23:16:30.313Z,69.61
2023-04-27T23:20:29.945Z,69.16
2023-04-27T23:23:42.724Z,69.01
2023-04-27T23:26:55.086Z,69.59
2023-04-27T23:29:59.682Z,69.57
2023-04-27T23:32:41.507Z,69.68
2023-04-27T23:36:22.234Z,69.95
2023-04-27T23:39:51.599Z,69.94
2023-04-27T23:43:12.643Z,69.94
2023-04-27T23:46:41.917Z,69.81
2023-04-27T23:49:44.374Z,70.03
2023-04-27T23:53:12.827Z,70.07
2023-04-27T23:57:02.384Z,70.06
